createdAt,value
2019-02-20T00:00:14.106Z,90.97
2019-02-20T00:03:22.277Z,90.95
2019-02-20T00:06:29.150Z,90.93
2019-02-20T00:09:35.812Z,91.30
2019-02-20T00:12:43.115Z,91.34
2019-02-20T00:15:50.235Z,91.12
2019-02-20T00:18:57.583Z,91.04
2019-02-20T00:22:03.979Z,91.06
2019-02-20T00:25:11.360Z,91.10
2019-02-20T00:28:17.840Z,91.04
2019-02-20T00:31:25.772Z,90.87
2019-02-20T00:34:32.570Z,90.95
2019-02-20T00:37:38.998Z,91.02
2019-02-20T00:40:45.605Z,90.91
2019-02-20T00:44:06.855Z,90.90
2019-02-20T00:47:44.412Z,90.88
2019-02-20T00:50:54.532Z,90.78
2019-02-20T00:54:03.191Z,90.80
2019-02-20T00:57:10.740Z,90.95
2019-02-20T01:00:17.493Z,90.68
2019-02-20T01:03:24.191Z,90.50
2019-02-20T01:06:30.818Z,90.16
2019-02-20T01:09:37.525Z,90.00
2019-02-20T01:12:44.520Z,90.04
2019-02-20T01:15:51.253Z,89.82
2019-02-20T01:18:57.684Z,89.87
2019-02-20T01:22:04.237Z,89.88
2019-02-20T01:25:10.724Z,89.77
2019-02-20T01:28:17.163Z,89.77
2019-02-20T01:31:23.724Z,89.96
2019-02-20T01:34:30.048Z,90.18
2019-02-20T01:37:36.555Z,90.61
2019-02-20T01:40:43.000Z,90.47
2019-02-20T01:43:49.331Z,90.34
2019-02-20T01:46:55.941Z,90.41
2019-02-20T01:50:02.642Z,90.22
2019-02-20T01:53:10.614Z,90.50
2019-02-20T01:56:17.407Z,90.35
2019-02-20T01:59:23.744Z,90.36
2019-02-20T02:02:30.603Z,90.31
2019-02-20T02:05:37.074Z,90.52
2019-02-20T02:08:43.247Z,90.60
2019-02-20T02:11:49.782Z,90.22
2019-02-20T02:14:56.282Z,90.14
2019-02-20T02:18:02.946Z,90.39
2019-02-20T02:21:09.403Z,90.24
2019-02-20T02:24:16.040Z,90.06
2019-02-20T02:27:22.696Z,90.37
2019-02-20T02:30:29.767Z,90.58
2019-02-20T02:33:36.437Z,90.61
2019-02-20T02:36:44.088Z,90.56
2019-02-20T02:39:51.154Z,90.18
2019-02-20T02:42:57.800Z,90.06
2019-02-20T02:46:04.126Z,89.67
2019-02-20T02:49:10.872Z,90.08
2019-02-20T02:52:17.235Z,90.00
2019-02-20T02:55:23.703Z,89.85
2019-02-20T02:58:30.258Z,90.04
2019-02-20T03:01:37.489Z,89.94
2019-02-20T03:04:44.125Z,89.83
2019-02-20T03:07:50.565Z,89.94
2019-02-20T03:10:57.029Z,90.30
2019-02-20T03:14:04.520Z,90.57
2019-02-20T03:17:11.361Z,90.39
2019-02-20T03:20:19.908Z,90.07
2019-02-20T03:23:26.709Z,89.85
2019-02-20T03:26:36.784Z,90.18
2019-02-20T03:29:43.255Z,90.12
2019-02-20T03:32:50.073Z,90.15
2019-02-20T03:35:56.609Z,90.10
2019-02-20T03:39:03.497Z,90.25
2019-02-20T03:42:11.568Z,90.19
2019-02-20T03:45:17.894Z,90.40
2019-02-20T03:48:24.291Z,90.45
2019-02-20T03:51:30.919Z,90.06
2019-02-20T03:54:37.495Z,90.14
2019-02-20T03:57:44.064Z,89.72
2019-02-20T04:00:50.677Z,89.77
2019-02-20T04:03:57.652Z,90.01
2019-02-20T04:07:03.861Z,89.80
2019-02-20T04:10:10.651Z,89.85
2019-02-20T04:13:17.220Z,90.02
2019-02-20T04:16:23.716Z,89.96
2019-02-20T04:19:30.277Z,90.23
2019-02-20T04:22:37.170Z,90.40
2019-02-20T04:25:43.836Z,90.42
2019-02-20T04:28:50.593Z,90.25
2019-02-20T04:31:56.957Z,90.22
2019-02-20T04:35:03.198Z,90.47
2019-02-20T04:38:09.649Z,90.39
2019-02-20T04:41:16.315Z,90.32
2019-02-20T04:44:22.937Z,90.21
2019-02-20T04:47:29.338Z,89.95
2019-02-20T04:50:37.149Z,89.86
2019-02-20T04:53:44.227Z,90.30
2019-02-20T04:56:50.664Z,90.06
2019-02-20T04:59:57.213Z,90.32
2019-02-20T05:03:03.695Z,89.97
2019-02-20T05:06:10.525Z,89.91
2019-02-20T05:09:17.438Z,89.72
2019-02-20T05:12:25.089Z,89.99
2019-02-20T05:15:31.801Z,90.09
2019-02-20T05:18:38.367Z,89.74
2019-02-20T05:21:45.671Z,89.62
2019-02-20T05:24:52.279Z,89.69
2019-02-20T05:27:59.092Z,89.60
2019-02-20T05:31:05.808Z,89.31
2019-02-20T05:34:12.546Z,88.36
2019-02-20T05:37:19.049Z,88.67
2019-02-20T05:40:25.537Z,88.62
2019-02-20T05:43:32.330Z,88.48
2019-02-20T05:46:39.095Z,88.10
2019-02-20T05:49:46.007Z,87.89
2019-02-20T05:52:52.458Z,87.75
2019-02-20T05:55:58.895Z,87.50
2019-02-20T05:59:05.305Z,86.95
2019-02-20T06:02:12.106Z,86.99
2019-02-20T06:05:18.594Z,87.29
2019-02-20T06:08:28.133Z,87.23
2019-02-20T06:11:35.502Z,86.93
2019-02-20T06:14:41.904Z,87.01
2019-02-20T06:17:48.394Z,86.71
2019-02-20T06:20:56.289Z,86.69
2019-02-20T06:24:03.323Z,86.48
2019-02-20T06:27:10.347Z,86.33
2019-02-20T06:30:17.286Z,86.34
2019-02-20T06:33:24.184Z,85.81
2019-02-20T06:36:30.484Z,86.33
2019-02-20T06:39:37.362Z,86.12
2019-02-20T06:42:43.836Z,85.95
2019-02-20T06:45:50.318Z,85.74
2019-02-20T06:48:57.161Z,85.57
2019-02-20T06:52:03.871Z,85.52
2019-02-20T06:55:10.861Z,85.42
2019-02-20T06:58:18.387Z,85.56
2019-02-20T07:01:25.001Z,84.89
2019-02-20T07:04:32.647Z,85.12
2019-02-20T07:08:07.959Z,85.09
2019-02-20T07:11:45.822Z,84.66
2019-02-20T07:15:42.159Z,84.29
2019-02-20T07:19:03.190Z,84.20
2019-02-20T07:22:51.517Z,83.94
2019-02-20T07:26:33.047Z,83.50
2019-02-20T07:30:05.769Z,83.78
2019-02-20T07:33:12.381Z,83.61
2019-02-20T07:36:18.944Z,83.19
2019-02-20T07:39:25.407Z,82.72
2019-02-20T07:42:32.265Z,82.75
2019-02-20T07:45:39.417Z,81.76
2019-02-20T07:48:46.142Z,82.32
2019-02-20T07:51:52.899Z,81.80
2019-02-20T07:54:59.799Z,81.41
2019-02-20T07:58:06.708Z,80.26
2019-02-20T08:01:13.653Z,79.70
2019-02-20T08:04:22.038Z,79.65
2019-02-20T08:07:28.617Z,79.48
2019-02-20T08:10:35.667Z,78.85
2019-02-20T08:13:42.445Z,78.77
2019-02-20T08:16:52.301Z,77.97
2019-02-20T08:19:58.052Z,76.95
2019-02-20T08:23:04.628Z,76.84
2019-02-20T08:26:11.147Z,77.01
2019-02-20T08:29:18.820Z,75.97
2019-02-20T08:32:26.060Z,75.71
2019-02-20T08:35:33.182Z,75.88
2019-02-20T08:38:39.897Z,75.65
2019-02-20T08:41:47.130Z,75.03
2019-02-20T08:44:55.211Z,74.02
2019-02-20T08:48:01.594Z,74.73
2019-02-20T08:51:08.505Z,75.07
2019-02-20T08:54:14.729Z,73.42
2019-02-20T08:57:21.058Z,72.59
2019-02-20T09:00:28.267Z,72.24
2019-02-20T09:03:35.151Z,71.62
2019-02-20T09:06:41.869Z,71.77
2019-02-20T09:09:48.926Z,70.91
2019-02-20T09:12:55.771Z,70.73
2019-02-20T09:16:02.316Z,71.13
2019-02-20T09:19:08.883Z,71.05
2019-02-20T09:22:15.651Z,69.26
2019-02-20T09:25:22.341Z,70.68
2019-02-20T09:28:29.047Z,69.95
2019-02-20T09:31:37.051Z,69.31
2019-02-20T09:34:43.948Z,69.17
2019-02-20T09:37:51.076Z,68.76
2019-02-20T09:40:57.875Z,68.16
2019-02-20T09:44:04.724Z,67.98
2019-02-20T09:47:11.236Z,68.70
2019-02-20T09:50:18.215Z,67.89
2019-02-20T09:53:24.918Z,67.00
2019-02-20T09:56:31.331Z,67.66
2019-02-20T09:59:37.825Z,68.08
2019-02-20T10:02:44.152Z,67.59
2019-02-20T10:05:50.960Z,67.05
2019-02-20T10:08:58.505Z,68.06
2019-02-20T10:12:05.815Z,67.15
2019-02-20T10:15:13.125Z,66.36
2019-02-20T10:18:19.786Z,66.52
2019-02-20T10:21:27.053Z,67.56
2019-02-20T10:24:34.272Z,66.96
2019-02-20T10:27:40.851Z,66.66
2019-02-20T10:30:49.016Z,65.44
2019-02-20T10:33:55.409Z,65.66
2019-02-20T10:37:02.267Z,66.20
2019-02-20T10:40:08.648Z,65.50
2019-02-20T10:43:15.385Z,64.86
2019-02-20T10:46:22.055Z,64.93
2019-02-20T10:49:29.085Z,64.74
2019-02-20T10:52:37.322Z,64.70
2019-02-20T10:55:43.718Z,64.53
2019-02-20T10:58:50.401Z,63.98
2019-02-20T11:01:58.219Z,63.49
2019-02-20T11:05:04.976Z,63.99
2019-02-20T11:08:11.391Z,63.42
2019-02-20T11:11:18.427Z,63.29
2019-02-20T11:14:25.087Z,63.37
2019-02-20T11:17:31.697Z,63.10
2019-02-20T11:20:38.378Z,63.18
2019-02-20T11:23:45.049Z,62.25
2019-02-20T11:26:54.944Z,63.15
2019-02-20T11:29:59.873Z,62.83
2019-02-20T11:33:06.837Z,61.95
2019-02-20T11:36:13.497Z,62.02
2019-02-20T11:39:20.147Z,62.15
2019-02-20T11:42:26.525Z,62.33
2019-02-20T11:45:33.166Z,61.60
2019-02-20T11:48:40.066Z,61.85
2019-02-20T11:51:47.625Z,60.70
2019-02-20T11:54:54.796Z,60.79
2019-02-20T11:58:01.564Z,60.78
2019-02-20T12:01:08.225Z,60.78
2019-02-20T12:04:14.851Z,59.44
2019-02-20T12:07:21.618Z,59.55
2019-02-20T12:10:28.297Z,59.60
2019-02-20T12:13:35.205Z,58.72
2019-02-20T12:16:41.990Z,58.87
2019-02-20T12:19:48.325Z,57.98
2019-02-20T12:22:55.623Z,60.29
2019-02-20T12:26:02.604Z,59.91
2019-02-20T12:29:11.153Z,59.13
2019-02-20T12:32:17.209Z,59.70
2019-02-20T12:35:24.219Z,59.09
2019-02-20T12:38:30.673Z,58.87
2019-02-20T12:41:40.254Z,59.40
2019-02-20T12:44:48.447Z,59.31
2019-02-20T12:47:54.763Z,59.57
2019-02-20T12:51:01.493Z,59.07
2019-02-20T12:54:08.587Z,59.14
2019-02-20T12:57:15.254Z,59.47
2019-02-20T13:00:24.167Z,58.67
2019-02-20T13:03:31.249Z,59.60
2019-02-20T13:06:38.064Z,57.73
2019-02-20T13:09:44.373Z,58.27
2019-02-20T13:12:52.953Z,59.39
2019-02-20T13:15:59.734Z,59.57
2019-02-20T13:19:06.984Z,59.39
2019-02-20T13:22:13.346Z,59.85
2019-02-20T13:25:21.023Z,60.06
2019-02-20T13:28:27.982Z,60.55
2019-02-20T13:31:38.962Z,60.36
2019-02-20T13:34:45.466Z,61.42
2019-02-20T13:37:51.831Z,61.16
2019-02-20T13:40:59.660Z,61.23
2019-02-20T13:44:07.074Z,61.76
2019-02-20T13:47:14.206Z,61.17
2019-02-20T13:50:21.036Z,60.84
2019-02-20T13:53:27.493Z,61.42
2019-02-20T13:56:34.845Z,60.47
2019-02-20T13:59:41.488Z,60.62
2019-02-20T14:02:48.455Z,60.68
2019-02-20T14:05:55.441Z,59.97
2019-02-20T14:09:02.724Z,61.11
2019-02-20T14:12:11.375Z,61.58
2019-02-20T14:15:18.110Z,62.26
2019-02-20T14:18:26.432Z,60.90
2019-02-20T14:21:33.543Z,61.76
2019-02-20T14:24:39.886Z,61.22
2019-02-20T14:27:46.810Z,61.85
2019-02-20T14:30:53.795Z,62.07
2019-02-20T14:34:00.470Z,62.93
2019-02-20T14:37:08.006Z,62.54
2019-02-20T14:40:15.495Z,63.47
2019-02-20T14:43:22.709Z,63.00
2019-02-20T14:46:29.390Z,63.21
2019-02-20T14:49:36.237Z,63.22
2019-02-20T14:52:43.436Z,63.04
2019-02-20T14:55:50.476Z,63.91
2019-02-20T14:58:57.644Z,63.08
2019-02-20T15:02:04.310Z,64.13
2019-02-20T15:05:12.086Z,62.96
2019-02-20T15:08:19.334Z,63.48
2019-02-20T15:11:27.434Z,64.14
2019-02-20T15:14:34.717Z,64.42
2019-02-20T15:17:42.308Z,64.79
2019-02-20T15:20:48.896Z,65.03
2019-02-20T15:23:55.705Z,64.86
2019-02-20T15:27:02.468Z,65.28
2019-02-20T15:30:12.598Z,64.42
2019-02-20T15:33:19.350Z,64.81
2019-02-20T15:36:26.591Z,64.17
2019-02-20T15:39:33.496Z,64.92
2019-02-20T15:42:42.089Z,64.75
2019-02-20T15:45:49.548Z,63.98
2019-02-20T15:48:56.400Z,64.74
2019-02-20T15:52:03.859Z,65.33
2019-02-20T15:55:11.390Z,65.16
2019-02-20T15:58:18.005Z,66.21
2019-02-20T16:01:25.044Z,66.15
2019-02-20T16:04:32.461Z,66.27
2019-02-20T16:07:39.331Z,66.17
2019-02-20T16:10:46.231Z,66.26
2019-02-20T16:13:54.048Z,67.07
2019-02-20T16:17:00.936Z,67.24
2019-02-20T16:20:10.261Z,67.03
2019-02-20T16:23:16.892Z,67.13
2019-02-20T16:26:23.551Z,68.13
2019-02-20T16:29:30.146Z,68.71
2019-02-20T16:32:37.513Z,68.32
2019-02-20T16:35:44.039Z,69.00
2019-02-20T16:38:50.654Z,69.14
2019-02-20T16:41:57.146Z,69.34
2019-02-20T16:45:04.025Z,69.41
2019-02-20T16:48:10.623Z,69.76
2019-02-20T16:51:17.105Z,70.23
2019-02-20T16:54:27.428Z,70.98
2019-02-20T16:57:34.239Z,70.53
2019-02-20T17:00:41.160Z,70.76
2019-02-20T17:03:48.143Z,70.90
2019-02-20T17:06:57.490Z,70.91
2019-02-20T17:10:04.199Z,71.30
2019-02-20T17:13:11.477Z,71.46
2019-02-20T17:16:18.069Z,71.78
2019-02-20T17:19:26.440Z,71.43
2019-02-20T17:22:32.739Z,70.95
2019-02-20T17:25:39.844Z,71.80
2019-02-20T17:28:46.895Z,71.24
2019-02-20T17:31:54.420Z,72.27
2019-02-20T17:35:02.861Z,72.49
2019-02-20T17:38:09.611Z,72.42
2019-02-20T17:41:17.245Z,73.30
2019-02-20T17:44:24.434Z,73.70
2019-02-20T17:47:31.072Z,73.87
2019-02-20T17:50:38.103Z,74.08
2019-02-20T17:53:45.100Z,74.71
2019-02-20T17:56:51.961Z,74.83
2019-02-20T17:59:58.932Z,75.05
2019-02-20T18:03:06.000Z,75.33
2019-02-20T18:06:12.769Z,74.98
2019-02-20T18:09:19.623Z,76.18
2019-02-20T18:12:30.255Z,76.26
2019-02-20T18:15:37.117Z,76.80
2019-02-20T18:18:43.948Z,76.78
2019-02-20T18:21:51.448Z,76.62
2019-02-20T18:24:58.345Z,77.28
2019-02-20T18:28:06.427Z,76.89
2019-02-20T18:31:13.527Z,77.75
2019-02-20T18:34:20.571Z,77.80
2019-02-20T18:37:28.120Z,77.93
2019-02-20T18:40:34.920Z,77.99
2019-02-20T18:43:42.436Z,78.09
2019-02-20T18:46:49.865Z,78.02
2019-02-20T18:49:56.264Z,78.86
2019-02-20T18:53:03.082Z,78.95
2019-02-20T18:56:10.435Z,78.90
2019-02-20T18:59:17.044Z,79.19
2019-02-20T19:02:23.713Z,79.39
2019-02-20T19:05:33.633Z,79.20
2019-02-20T19:08:48.612Z,79.59
2019-02-20T19:12:06.026Z,80.03
2019-02-20T19:15:28.727Z,80.15
2019-02-20T19:19:15.190Z,79.55
2019-02-20T19:22:54.013Z,80.72
2019-02-20T19:26:25.439Z,80.54
2019-02-20T19:30:00.355Z,80.80
2019-02-20T19:33:59.540Z,80.51
2019-02-20T19:37:39.710Z,80.40
2019-02-20T19:41:21.682Z,82.55
2019-02-20T19:45:25.298Z,82.54
2019-02-20T19:49:04.230Z,83.19
2019-02-20T19:52:33.881Z,83.09
2019-02-20T19:56:04.575Z,82.33
2019-02-20T19:59:38.294Z,82.69
2019-02-20T20:03:21.970Z,82.85
2019-02-20T20:07:16.374Z,82.61
2019-02-20T20:10:41.392Z,83.71
2019-02-20T20:14:36.470Z,82.79
2019-02-20T20:18:30.895Z,83.64
2019-02-20T20:22:21.351Z,84.61
2019-02-20T20:25:53.391Z,84.42
2019-02-20T20:29:35.462Z,84.40
2019-02-20T20:33:12.127Z,83.54
2019-02-20T20:36:52.550Z,84.03
2019-02-20T20:40:27.504Z,84.52
2019-02-20T20:44:14.055Z,85.23
2019-02-20T20:47:43.818Z,84.78
2019-02-20T20:51:27.441Z,84.77
2019-02-20T20:55:20.138Z,85.33
2019-02-20T20:58:54.411Z,85.59
2019-02-20T21:02:12.157Z,85.57
2019-02-20T21:06:02.429Z,86.45
2019-02-20T21:09:32.738Z,86.01
2019-02-20T21:13:38.817Z,87.00
2019-02-20T21:17:53.782Z,86.07
2019-02-20T21:21:10.058Z,87.41
2019-02-20T21:24:55.924Z,86.66
2019-02-20T21:28:36.724Z,87.21
2019-02-20T21:32:08.358Z,86.37
2019-02-20T21:35:39.253Z,87.02
2019-02-20T21:39:25.861Z,87.60
2019-02-20T21:43:06.792Z,86.28
2019-02-20T21:46:46.954Z,87.88
2019-02-20T21:50:15.301Z,87.69
2019-02-20T21:53:59.259Z,86.75
2019-02-20T21:57:23.472Z,87.62
2019-02-20T22:00:39.487Z,87.55
2019-02-20T22:04:11.201Z,87.41
2019-02-20T22:07:40.512Z,87.40
2019-02-20T22:11:32.915Z,86.63
2019-02-20T22:15:31.967Z,86.49
2019-02-20T22:19:05.068Z,86.83
2019-02-20T22:22:31.395Z,86.67
2019-02-20T22:26:08.574Z,86.09
2019-02-20T22:29:53.054Z,86.75
2019-02-20T22:33:29.110Z,87.13
2019-02-20T22:37:22.982Z,87.32
2019-02-20T22:41:16.244Z,87.48
2019-02-20T22:45:20.323Z,87.44
2019-02-20T22:48:57.282Z,86.90
2019-02-20T22:52:23.883Z,86.89
2019-02-20T22:56:16.160Z,86.71
2019-02-20T23:00:01.444Z,86.73
2019-02-20T23:03:36.753Z,87.24
2019-02-20T23:07:14.413Z,88.17
2019-02-20T23:11:04.568Z,87.82
2019-02-20T23:14:37.614Z,87.14
2019-02-20T23:17:44.588Z,87.29
2019-02-20T23:20:51.423Z,86.95
2019-02-20T23:23:58.501Z,86.50
2019-02-20T23:27:05.521Z,86.56
2019-02-20T23:30:13.334Z,87.13
2019-02-20T23:33:20.235Z,87.67
2019-02-20T23:36:27.183Z,87.47
2019-02-20T23:39:34.132Z,87.52
2019-02-20T23:42:41.583Z,88.06
2019-02-20T23:45:47.871Z,88.49
2019-02-20T23:48:54.699Z,88.72
2019-02-20T23:52:00.975Z,89.05
2019-02-20T23:55:07.981Z,89.24
2019-02-20T23:58:14.594Z,89.03
